createdAt,value
2018-03-30T00:00:48.813Z,9.07
2018-03-30T00:03:16.443Z,8.95
2018-03-30T00:05:44.071Z,8.84
2018-03-30T00:08:11.697Z,8.51
2018-03-30T00:10:44.826Z,8.27
2018-03-30T00:13:12.381Z,8.17
2018-03-30T00:15:39.946Z,8.09
2018-03-30T00:18:07.502Z,7.91
2018-03-30T00:20:35.185Z,7.82
2018-03-30T00:23:02.809Z,7.64
2018-03-30T00:25:30.426Z,7.59
2018-03-30T00:27:57.995Z,7.50
2018-03-30T00:30:25.558Z,7.42
2018-03-30T00:32:53.126Z,7.32
2018-03-30T00:35:20.700Z,7.22
2018-03-30T00:37:48.306Z,7.18
2018-03-30T00:40:15.866Z,7.14
2018-03-30T00:42:43.482Z,7.11
2018-03-30T00:45:11.103Z,7.07
2018-03-30T00:47:38.719Z,7.03
2018-03-30T00:50:06.286Z,7.06
2018-03-30T00:52:33.849Z,7.05
2018-03-30T00:55:01.514Z,7.07
2018-03-30T00:57:29.088Z,7.05
2018-03-30T00:59:56.720Z,7.04
2018-03-30T01:02:24.316Z,6.89
2018-03-30T01:04:51.938Z,6.77
2018-03-30T01:07:19.505Z,6.68
2018-03-30T01:09:47.130Z,6.66
2018-03-30T01:12:14.737Z,6.65
2018-03-30T01:14:42.308Z,6.50
2018-03-30T01:17:09.872Z,6.44
2018-03-30T01:19:37.510Z,6.45
2018-03-30T01:22:05.066Z,6.41
2018-03-30T01:24:32.634Z,6.40
2018-03-30T01:27:00.262Z,6.40
2018-03-30T01:29:27.870Z,6.41
2018-03-30T01:31:55.490Z,6.34
2018-03-30T01:34:23.051Z,6.33
2018-03-30T01:36:50.680Z,6.33
2018-03-30T01:39:18.238Z,6.24
2018-03-30T01:41:45.863Z,6.20
2018-03-30T01:44:13.418Z,6.12
2018-03-30T01:46:41.038Z,6.04
2018-03-30T01:49:08.597Z,5.96
2018-03-30T01:51:36.172Z,5.88
2018-03-30T01:54:03.746Z,5.86
2018-03-30T01:56:31.310Z,5.84
2018-03-30T01:58:58.907Z,5.88
2018-03-30T02:01:26.526Z,5.82
2018-03-30T02:03:54.138Z,5.76
2018-03-30T02:06:21.698Z,5.79
2018-03-30T02:08:49.301Z,5.72
2018-03-30T02:11:16.927Z,5.69
2018-03-30T02:13:44.543Z,5.61
2018-03-30T02:16:12.118Z,5.58
2018-03-30T02:18:39.732Z,5.58
2018-03-30T02:21:07.411Z,5.53
2018-03-30T02:23:35.026Z,5.47
2018-03-30T02:26:02.586Z,5.42
2018-03-30T02:28:30.153Z,5.48
2018-03-30T02:30:57.770Z,5.42
2018-03-30T02:33:25.349Z,5.46
2018-03-30T02:35:52.910Z,5.47
2018-03-30T02:38:20.533Z,5.49
2018-03-30T02:40:48.094Z,5.54
2018-03-30T02:43:15.665Z,5.50
2018-03-30T02:45:43.275Z,5.51
2018-03-30T02:48:10.900Z,5.43
2018-03-30T02:50:38.471Z,5.40
2018-03-30T02:53:06.050Z,5.37
2018-03-30T02:55:33.667Z,5.35
2018-03-30T02:58:01.247Z,5.35
2018-03-30T03:00:28.874Z,5.41
2018-03-30T03:02:56.550Z,5.44
2018-03-30T03:05:24.128Z,5.47
2018-03-30T03:07:51.715Z,5.43
2018-03-30T03:10:19.296Z,5.35
2018-03-30T03:12:46.982Z,5.34
2018-03-30T03:15:14.542Z,5.31
2018-03-30T03:17:42.111Z,5.37
2018-03-30T03:20:09.738Z,5.40
2018-03-30T03:22:37.302Z,5.40
2018-03-30T03:25:04.870Z,5.37
2018-03-30T03:27:32.445Z,5.31
2018-03-30T03:30:00.136Z,5.31
2018-03-30T03:32:27.706Z,5.27
2018-03-30T03:34:55.266Z,5.31
2018-03-30T03:37:22.890Z,5.33
2018-03-30T03:39:50.518Z,5.28
2018-03-30T03:42:18.089Z,5.22
2018-03-30T03:44:45.646Z,5.16
2018-03-30T03:47:13.323Z,5.08
2018-03-30T03:49:40.890Z,5.02
2018-03-30T03:52:08.454Z,4.97
2018-03-30T03:54:36.029Z,5.00
2018-03-30T03:57:03.595Z,4.96
2018-03-30T03:59:31.165Z,5.03
2018-03-30T04:01:58.721Z,5.11
2018-03-30T04:04:26.342Z,5.13
2018-03-30T04:06:53.902Z,5.12
2018-03-30T04:09:21.522Z,5.06
2018-03-30T04:11:49.105Z,5.10
2018-03-30T04:14:16.674Z,5.20
2018-03-30T04:16:44.395Z,5.34
2018-03-30T04:19:11.950Z,5.43
2018-03-30T04:21:39.577Z,5.49
2018-03-30T04:24:07.170Z,5.64
2018-03-30T04:26:34.739Z,5.83
2018-03-30T04:29:02.317Z,5.96
2018-03-30T04:31:29.903Z,6.01
2018-03-30T04:33:57.535Z,6.05
2018-03-30T04:36:25.177Z,6.13
2018-03-30T04:38:52.790Z,6.21
2018-03-30T04:41:20.350Z,6.35
2018-03-30T04:43:47.914Z,6.49
2018-03-30T04:46:15.486Z,6.68
2018-03-30T04:48:43.045Z,7.03
2018-03-30T04:51:10.680Z,8.21
2018-03-30T04:53:38.298Z,9.65
2018-03-30T04:56:05.962Z,10.56
2018-03-30T04:58:33.557Z,11.33
2018-03-30T05:01:01.183Z,12.06
2018-03-30T05:03:28.770Z,12.80
2018-03-30T05:05:56.334Z,13.33
2018-03-30T05:08:23.906Z,13.65
2018-03-30T05:10:51.530Z,14.26
2018-03-30T05:13:19.191Z,14.20
2018-03-30T05:15:46.779Z,14.50
2018-03-30T05:18:14.431Z,15.49
2018-03-30T05:20:42.138Z,15.72
2018-03-30T05:23:09.794Z,16.76
2018-03-30T05:25:37.422Z,17.48
2018-03-30T05:28:05.026Z,17.93
2018-03-30T05:30:32.591Z,18.92
2018-03-30T05:33:00.223Z,19.29
2018-03-30T05:35:27.800Z,19.49
2018-03-30T05:37:55.453Z,19.54
2018-03-30T05:40:23.017Z,19.13
2018-03-30T05:42:50.634Z,19.42
2018-03-30T05:45:18.194Z,19.01
2018-03-30T05:47:45.757Z,19.36
2018-03-30T05:50:13.399Z,19.12
2018-03-30T05:52:41.022Z,18.89
2018-03-30T05:55:08.664Z,18.59
2018-03-30T05:57:36.234Z,19.71
2018-03-30T06:00:03.934Z,20.51
2018-03-30T06:02:31.497Z,21.26
2018-03-30T06:04:59.167Z,21.50
2018-03-30T06:07:26.799Z,21.94
2018-03-30T06:09:54.422Z,22.26
2018-03-30T06:12:22.002Z,22.36
2018-03-30T06:14:49.582Z,21.74
2018-03-30T06:17:17.270Z,21.92
2018-03-30T06:19:44.836Z,21.71
2018-03-30T06:22:12.401Z,20.66
2018-03-30T06:24:40.040Z,19.84
2018-03-30T06:27:07.684Z,19.81
2018-03-30T06:29:35.259Z,19.74
2018-03-30T06:32:02.918Z,20.93
2018-03-30T06:34:30.546Z,21.12
2018-03-30T06:36:58.119Z,21.70
2018-03-30T06:39:25.689Z,21.90
2018-03-30T06:41:53.266Z,22.53
2018-03-30T06:44:20.935Z,22.93
2018-03-30T06:46:48.615Z,22.97
2018-03-30T06:49:16.173Z,23.03
2018-03-30T06:51:43.795Z,22.89
2018-03-30T06:54:11.402Z,22.24
2018-03-30T06:56:38.965Z,21.35
2018-03-30T06:59:06.539Z,20.77
2018-03-30T07:01:34.167Z,20.71
2018-03-30T07:04:01.794Z,21.38
2018-03-30T07:06:29.430Z,21.50
2018-03-30T07:08:57.055Z,22.16
2018-03-30T07:11:24.689Z,22.55
2018-03-30T07:13:52.254Z,22.92
2018-03-30T07:16:19.861Z,22.75
2018-03-30T07:18:47.484Z,22.18
2018-03-30T07:21:15.106Z,21.47
2018-03-30T07:23:42.731Z,21.61
2018-03-30T07:26:10.359Z,21.82
2018-03-30T07:28:37.938Z,21.52
2018-03-30T07:31:05.505Z,21.23
2018-03-30T07:33:33.074Z,20.86
2018-03-30T07:36:00.641Z,20.54
2018-03-30T07:38:28.267Z,20.35
2018-03-30T07:40:55.844Z,20.16
2018-03-30T07:43:23.405Z,20.26
2018-03-30T07:45:50.977Z,20.43
2018-03-30T07:48:18.603Z,20.87
2018-03-30T07:50:46.165Z,21.16
2018-03-30T07:53:13.725Z,21.15
2018-03-30T07:55:41.398Z,20.96
2018-03-30T07:58:08.954Z,20.64
2018-03-30T08:00:36.575Z,20.90
2018-03-30T08:03:04.142Z,20.61
2018-03-30T08:05:31.701Z,20.63
2018-03-30T08:07:59.335Z,20.57
2018-03-30T08:10:26.893Z,20.40
2018-03-30T08:12:54.534Z,20.68
2018-03-30T08:15:22.093Z,20.56
2018-03-30T08:17:49.712Z,20.37
2018-03-30T08:20:17.346Z,20.26
2018-03-30T08:22:44.914Z,20.48
2018-03-30T08:25:12.490Z,20.85
2018-03-30T08:27:40.118Z,21.16
2018-03-30T08:30:07.761Z,21.37
2018-03-30T08:32:35.327Z,21.51
2018-03-30T08:35:02.946Z,21.62
2018-03-30T08:37:30.514Z,21.65
2018-03-30T08:39:58.078Z,21.75
2018-03-30T08:42:25.646Z,21.87
2018-03-30T08:44:53.205Z,21.93
2018-03-30T08:47:20.967Z,21.99
2018-03-30T08:49:48.530Z,22.00
2018-03-30T08:52:16.151Z,22.20
2018-03-30T08:54:43.718Z,22.20
2018-03-30T08:57:11.278Z,22.20
2018-03-30T08:59:38.907Z,22.22
2018-03-30T09:02:06.504Z,22.46
2018-03-30T09:04:34.149Z,22.71
2018-03-30T09:07:01.706Z,22.72
2018-03-30T09:09:29.262Z,22.94
2018-03-30T09:11:56.890Z,23.09
2018-03-30T09:14:24.449Z,23.33
2018-03-30T09:16:52.028Z,23.57
2018-03-30T09:19:19.653Z,23.70
2018-03-30T09:21:47.305Z,23.94
2018-03-30T09:24:14.975Z,24.08
2018-03-30T09:26:42.534Z,24.39
2018-03-30T09:29:10.102Z,24.28
2018-03-30T09:31:37.755Z,24.09
2018-03-30T09:34:05.324Z,24.39
2018-03-30T09:36:32.883Z,24.41
2018-03-30T09:39:00.512Z,24.54
2018-03-30T09:41:28.065Z,24.87
2018-03-30T09:43:55.618Z,25.21
2018-03-30T09:46:23.185Z,25.13
2018-03-30T09:48:50.846Z,24.84
2018-03-30T09:51:18.532Z,24.87
2018-03-30T09:53:46.155Z,24.98
2018-03-30T09:56:13.830Z,25.11
2018-03-30T09:58:41.385Z,25.21
2018-03-30T10:01:14.672Z,25.37
2018-03-30T10:03:42.270Z,25.48
2018-03-30T10:06:09.831Z,25.42
2018-03-30T10:08:37.393Z,25.69
2018-03-30T10:11:04.999Z,25.51
2018-03-30T10:13:32.582Z,26.05
2018-03-30T10:16:00.141Z,26.06
2018-03-30T10:18:27.772Z,26.23
2018-03-30T10:20:55.345Z,26.45
2018-03-30T10:23:22.915Z,26.48
2018-03-30T10:25:50.487Z,26.51
2018-03-30T10:28:18.069Z,26.66
2018-03-30T10:30:45.642Z,26.65
2018-03-30T10:33:13.235Z,27.22
2018-03-30T10:35:40.964Z,27.18
2018-03-30T10:38:08.546Z,27.28
2018-03-30T10:40:36.176Z,26.48
2018-03-30T10:43:03.741Z,27.72
2018-03-30T10:45:31.315Z,28.13
2018-03-30T10:47:58.893Z,28.15
2018-03-30T10:50:26.507Z,28.21
2018-03-30T10:52:54.123Z,29.04
2018-03-30T10:55:21.752Z,29.11
2018-03-30T10:57:49.320Z,29.86
2018-03-30T11:00:16.897Z,29.27
2018-03-30T11:02:44.548Z,29.68
2018-03-30T11:05:12.302Z,30.25
2018-03-30T11:07:39.857Z,30.50
2018-03-30T11:10:07.488Z,30.27
2018-03-30T11:12:35.053Z,30.02
2018-03-30T11:15:02.654Z,30.13
2018-03-30T11:17:30.252Z,29.85
2018-03-30T11:19:57.830Z,29.84
2018-03-30T11:22:25.472Z,30.17
2018-03-30T11:24:53.030Z,30.21
2018-03-30T11:27:20.664Z,30.16
2018-03-30T11:29:48.238Z,30.71
2018-03-30T11:32:15.811Z,30.56
2018-03-30T11:34:43.377Z,30.72
2018-03-30T11:37:10.934Z,30.64
2018-03-30T11:39:38.505Z,31.30
2018-03-30T11:42:06.125Z,30.78
2018-03-30T11:44:33.750Z,31.67
2018-03-30T11:47:01.312Z,31.14
2018-03-30T11:49:28.874Z,30.42
2018-03-30T11:51:56.441Z,30.31
2018-03-30T11:54:24.001Z,29.29
2018-03-30T11:56:51.566Z,29.10
2018-03-30T11:59:19.121Z,29.14
2018-03-30T12:01:46.792Z,29.32
2018-03-30T12:04:14.351Z,30.17
2018-03-30T12:06:41.906Z,29.90
2018-03-30T12:09:09.538Z,29.99
2018-03-30T12:11:37.162Z,28.98
2018-03-30T12:14:04.852Z,30.12
2018-03-30T12:16:32.409Z,30.21
2018-03-30T12:18:59.966Z,30.02
2018-03-30T12:21:27.546Z,29.85
2018-03-30T12:23:55.118Z,29.57
2018-03-30T12:26:22.730Z,29.73
2018-03-30T12:28:50.351Z,29.38
2018-03-30T12:31:17.976Z,29.82
2018-03-30T12:33:45.545Z,29.88
2018-03-30T12:36:13.119Z,30.07
2018-03-30T12:38:40.742Z,28.88
2018-03-30T12:41:08.299Z,27.83
2018-03-30T12:43:35.865Z,27.18
2018-03-30T12:46:03.550Z,25.81
2018-03-30T12:48:31.175Z,25.44
2018-03-30T12:50:58.739Z,25.09
2018-03-30T12:53:26.379Z,24.82
2018-03-30T12:55:53.942Z,24.54
2018-03-30T12:58:21.512Z,23.99
2018-03-30T13:00:49.144Z,23.78
2018-03-30T13:03:16.767Z,23.69
2018-03-30T13:05:44.338Z,23.62
2018-03-30T13:08:11.953Z,23.72
2018-03-30T13:10:39.630Z,23.77
2018-03-30T13:13:07.190Z,23.64
2018-03-30T13:15:34.768Z,23.48
2018-03-30T13:18:02.403Z,23.16
2018-03-30T13:20:29.972Z,23.19
2018-03-30T13:22:57.542Z,23.29
2018-03-30T13:25:25.159Z,23.29
2018-03-30T13:27:52.836Z,23.41
2018-03-30T13:30:20.415Z,23.42
2018-03-30T13:32:47.970Z,23.46
2018-03-30T13:35:15.556Z,23.46
2018-03-30T13:37:43.126Z,23.26
2018-03-30T13:40:10.753Z,23.20
2018-03-30T13:42:38.319Z,23.18
2018-03-30T13:45:05.887Z,23.04
2018-03-30T13:47:33.462Z,22.81
2018-03-30T13:50:01.029Z,22.76
2018-03-30T13:52:47.363Z,22.69
2018-03-30T13:55:18.729Z,22.56
2018-03-30T14:01:05.078Z,22.54
2018-03-30T14:03:45.394Z,22.34
2018-03-30T14:09:18.374Z,22.17
2018-03-30T14:11:46.940Z,22.16
2018-03-30T14:14:14.572Z,22.13
2018-03-30T14:16:46.730Z,22.16
2018-03-30T14:19:21.980Z,22.05
2018-03-30T14:25:07.010Z,21.87
2018-03-30T14:30:47.501Z,21.86
2018-03-30T14:33:23.965Z,21.81
2018-03-30T14:36:07.322Z,21.75
2018-03-30T14:38:34.958Z,21.76
2018-03-30T14:41:02.616Z,21.69
2018-03-30T14:43:31.010Z,21.65
2018-03-30T14:48:58.477Z,21.60
2018-03-30T14:51:47.818Z,21.50
2018-03-30T14:54:20.179Z,21.37
2018-03-30T15:00:00.308Z,21.40
2018-03-30T15:02:29.491Z,21.41
2018-03-30T15:05:02.738Z,21.40
2018-03-30T15:07:33.365Z,21.38
2018-03-30T15:10:05.949Z,21.43
2018-03-30T15:12:42.672Z,21.34
2018-03-30T15:15:17.782Z,21.24
2018-03-30T15:17:49.095Z,21.23
2018-03-30T15:20:34.027Z,21.17
2018-03-30T15:23:11.590Z,21.10
2018-03-30T15:25:44.978Z,20.96
2018-03-30T15:28:14.239Z,20.96
2018-03-30T15:30:42.734Z,20.86
2018-03-30T15:33:16.077Z,20.74
2018-03-30T15:35:43.710Z,20.66
2018-03-30T15:38:11.277Z,20.56
2018-03-30T15:40:39.011Z,20.51
2018-03-30T15:43:09.849Z,20.38
2018-03-30T15:45:44.270Z,20.32
2018-03-30T15:48:11.849Z,20.21
2018-03-30T15:50:39.508Z,20.12
2018-03-30T15:53:07.218Z,20.00
2018-03-30T15:55:34.794Z,19.85
2018-03-30T15:58:02.390Z,19.73
2018-03-30T16:00:30.037Z,19.65
2018-03-30T16:02:57.654Z,19.58
2018-03-30T16:05:25.222Z,19.53
2018-03-30T16:07:52.865Z,19.43
2018-03-30T16:10:33.199Z,19.31
2018-03-30T16:13:00.834Z,19.19
2018-03-30T16:15:28.410Z,19.09
2018-03-30T16:17:55.982Z,19.00
2018-03-30T16:20:23.018Z,18.80
2018-03-30T16:22:50.046Z,18.72
2018-03-30T16:25:17.127Z,18.67
2018-03-30T16:27:44.153Z,18.59
2018-03-30T16:30:11.454Z,18.54
2018-03-30T16:32:38.750Z,18.42
2018-03-30T16:35:05.837Z,18.30
2018-03-30T16:37:32.870Z,18.15
2018-03-30T16:39:59.913Z,18.00
2018-03-30T16:42:27.059Z,17.85
2018-03-30T16:44:54.090Z,17.85
2018-03-30T16:47:21.176Z,17.84
2018-03-30T16:49:48.212Z,17.76
2018-03-30T16:52:15.243Z,17.68
2018-03-30T16:54:42.278Z,17.71
2018-03-30T16:57:09.301Z,17.81
2018-03-30T16:59:36.491Z,17.84
2018-03-30T17:02:03.510Z,17.91
2018-03-30T17:04:30.575Z,17.89
2018-03-30T17:06:57.610Z,17.90
2018-03-30T17:09:24.641Z,17.88
2018-03-30T17:11:51.741Z,17.93
2018-03-30T17:14:18.833Z,17.84
2018-03-30T17:16:45.910Z,17.82
2018-03-30T17:19:13.004Z,17.70
2018-03-30T17:21:40.035Z,17.62
2018-03-30T17:24:07.126Z,17.47
2018-03-30T17:26:34.154Z,17.33
2018-03-30T17:29:01.247Z,17.38
2018-03-30T17:31:28.338Z,17.35
2018-03-30T17:33:55.440Z,17.34
2018-03-30T17:36:22.463Z,17.34
2018-03-30T17:38:49.554Z,17.38
2018-03-30T17:41:16.599Z,17.38
2018-03-30T17:43:43.627Z,17.38
2018-03-30T17:46:10.715Z,17.35
2018-03-30T17:48:37.816Z,17.34
2018-03-30T17:51:05.020Z,17.36
2018-03-30T17:53:32.099Z,17.48
2018-03-30T17:55:59.126Z,17.45
2018-03-30T17:58:26.209Z,17.48
2018-03-30T18:00:53.277Z,17.43
2018-03-30T18:03:20.395Z,17.46
2018-03-30T18:05:47.543Z,17.43
2018-03-30T18:08:14.635Z,17.44
2018-03-30T18:10:41.662Z,17.41
2018-03-30T18:13:08.684Z,17.39
2018-03-30T18:15:35.722Z,17.33
2018-03-30T18:18:02.809Z,17.38
2018-03-30T18:20:29.935Z,17.38
2018-03-30T18:22:57.015Z,17.30
2018-03-30T18:27:56.509Z,17.23
2018-03-30T18:30:23.605Z,17.19
2018-03-30T18:32:50.731Z,17.14
2018-03-30T18:35:17.763Z,16.95
2018-03-30T18:37:44.847Z,16.81
2018-03-30T18:40:11.943Z,16.95
2018-03-30T18:42:40.252Z,16.83
2018-03-30T18:45:07.302Z,16.72
2018-03-30T18:47:34.379Z,16.75
2018-03-30T18:50:01.424Z,16.70
2018-03-30T18:52:28.467Z,16.74
2018-03-30T18:54:55.608Z,16.72
2018-03-30T18:57:22.720Z,16.70
2018-03-30T18:59:49.740Z,16.75
2018-03-30T19:02:16.779Z,16.73
2018-03-30T19:04:43.844Z,16.73
2018-03-30T19:07:10.885Z,16.79
2018-03-30T19:09:37.914Z,16.66
2018-03-30T19:12:04.996Z,16.61
2018-03-30T19:14:32.898Z,16.69
2018-03-30T19:16:59.959Z,16.69
2018-03-30T19:19:27.012Z,16.49
2018-03-30T19:21:54.111Z,16.42
2018-03-30T19:24:21.960Z,16.49
2018-03-30T19:26:48.977Z,16.54
2018-03-30T19:29:16.067Z,16.57
2018-03-30T19:31:43.152Z,16.57
2018-03-30T19:34:10.174Z,16.50
2018-03-30T19:36:37.232Z,16.55
2018-03-30T19:39:04.257Z,16.40
2018-03-30T19:41:31.350Z,16.46
2018-03-30T19:43:58.430Z,16.54
2018-03-30T19:46:25.539Z,16.56
2018-03-30T19:48:52.626Z,16.55
2018-03-30T19:51:19.664Z,16.43
2018-03-30T19:53:46.745Z,16.32
2018-03-30T19:56:13.802Z,16.19
2018-03-30T19:58:40.928Z,15.97
2018-03-30T20:01:07.986Z,15.86
2018-03-30T20:03:35.134Z,15.80
2018-03-30T20:06:02.163Z,15.75
2018-03-30T20:08:29.194Z,15.66
2018-03-30T20:10:56.234Z,15.57
2018-03-30T20:13:23.263Z,15.51
2018-03-30T20:15:50.398Z,15.45
2018-03-30T20:18:17.482Z,15.48
2018-03-30T20:20:44.518Z,15.54
2018-03-30T20:23:11.561Z,15.53
2018-03-30T20:25:38.649Z,15.65
2018-03-30T20:28:05.744Z,15.73
2018-03-30T20:30:32.845Z,15.79
2018-03-30T20:32:59.869Z,15.61
2018-03-30T20:35:26.916Z,15.59
2018-03-30T20:37:53.938Z,15.46
2018-03-30T20:40:21.031Z,15.33
2018-03-30T20:42:48.046Z,15.28
2018-03-30T20:45:15.095Z,15.12
2018-03-30T20:47:42.181Z,14.96
2018-03-30T20:50:09.266Z,15.00
2018-03-30T20:52:36.296Z,14.94
2018-03-30T20:55:03.322Z,14.85
2018-03-30T20:57:30.410Z,14.78
2018-03-30T20:59:57.426Z,14.73
2018-03-30T21:02:24.522Z,14.79
2018-03-30T21:04:51.542Z,14.80
2018-03-30T21:07:18.705Z,14.95
2018-03-30T21:09:45.725Z,15.07
2018-03-30T21:12:12.750Z,15.05
2018-03-30T21:14:39.778Z,15.09
2018-03-30T21:17:06.805Z,15.07
2018-03-30T21:19:33.830Z,15.17
2018-03-30T21:22:00.926Z,15.08
2018-03-30T21:24:28.082Z,15.15
2018-03-30T21:26:55.105Z,15.06
2018-03-30T21:29:22.221Z,14.98
2018-03-30T21:31:49.258Z,14.83
2018-03-30T21:34:16.281Z,14.97
2018-03-30T21:36:43.358Z,14.98
2018-03-30T21:39:10.402Z,14.97
2018-03-30T21:41:37.548Z,14.99
2018-03-30T21:44:04.566Z,15.19
2018-03-30T21:46:31.652Z,15.25
2018-03-30T21:48:58.738Z,15.30
2018-03-30T21:51:25.758Z,15.46
2018-03-30T21:53:52.847Z,15.51
2018-03-30T21:56:19.865Z,15.39
2018-03-30T21:58:46.952Z,15.27
2018-03-30T22:01:13.978Z,15.42
2018-03-30T22:03:40.994Z,15.58
2018-03-30T22:06:08.029Z,15.66
2018-03-30T22:08:35.054Z,15.47
2018-03-30T22:11:02.087Z,15.37
2018-03-30T22:13:29.111Z,15.29
2018-03-30T22:15:56.246Z,15.24
2018-03-30T22:18:23.304Z,15.25
2018-03-30T22:20:50.342Z,15.44
2018-03-30T22:23:17.370Z,15.49
2018-03-30T22:25:44.400Z,15.40
2018-03-30T22:28:11.486Z,15.31
2018-03-30T22:30:38.566Z,15.30
2018-03-30T22:33:05.694Z,15.19
2018-03-30T22:35:32.718Z,15.16
2018-03-30T22:37:59.795Z,15.11
2018-03-30T22:40:26.828Z,15.12
2018-03-30T22:42:53.910Z,15.15
2018-03-30T22:45:20.943Z,15.08
2018-03-30T22:47:47.967Z,15.02
2018-03-30T22:50:15.105Z,15.04
2018-03-30T22:52:42.183Z,15.14
2018-03-30T22:55:09.211Z,15.18
2018-03-30T22:57:36.234Z,15.34
2018-03-30T23:00:03.260Z,15.36
2018-03-30T23:02:30.350Z,15.25
2018-03-30T23:04:57.373Z,15.23
2018-03-30T23:07:24.464Z,15.17
2018-03-30T23:09:51.483Z,15.17
2018-03-30T23:12:18.523Z,15.20
2018-03-30T23:14:45.564Z,15.20
2018-03-30T23:17:12.600Z,15.18
2018-03-30T23:19:39.688Z,15.00
2018-03-30T23:22:06.698Z,14.92
2018-03-30T23:24:33.765Z,14.86
2018-03-30T23:27:00.801Z,14.80
2018-03-30T23:29:27.888Z,14.69
2018-03-30T23:31:54.928Z,14.58
2018-03-30T23:34:21.946Z,14.90
2018-03-30T23:36:49.003Z,15.08
2018-03-30T23:39:16.078Z,15.01
2018-03-30T23:41:43.154Z,14.82
2018-03-30T23:44:10.177Z,14.84
2018-03-30T23:46:37.294Z,14.73
2018-03-30T23:49:04.329Z,14.67
2018-03-30T23:51:31.343Z,14.63
2018-03-30T23:53:58.361Z,14.70
2018-03-30T23:56:25.441Z,14.75
2018-03-30T23:58:52.574Z,14.69
